createdAt,value
2023-01-20T00:01:49.025Z,86.92
2023-01-20T00:04:20.521Z,86.27
2023-01-20T00:06:49.198Z,85.61
2023-01-20T00:09:18.678Z,86.78
2023-01-20T00:11:47.327Z,87.06
2023-01-20T00:14:15.979Z,87.10
2023-01-20T00:16:44.608Z,86.49
2023-01-20T00:19:14.762Z,88.92
2023-01-20T00:21:43.579Z,91.16
2023-01-20T00:24:12.267Z,90.09
2023-01-20T00:26:40.948Z,89.25
2023-01-20T00:29:10.109Z,87.64
2023-01-20T00:31:38.975Z,87.39
2023-01-20T00:34:07.723Z,86.89
2023-01-20T00:36:36.769Z,86.42
2023-01-20T00:39:06.210Z,86.31
2023-01-20T00:41:34.808Z,86.61
2023-01-20T00:44:03.297Z,88.69
2023-01-20T00:46:31.838Z,90.27
2023-01-20T00:49:00.353Z,93.22
2023-01-20T00:51:28.949Z,95.72
2023-01-20T00:53:57.371Z,96.91
2023-01-20T00:56:26.682Z,96.98
2023-01-20T00:58:58.041Z,96.09
2023-01-20T01:01:26.717Z,96.43
2023-01-20T01:03:55.129Z,97.32
2023-01-20T01:06:24.024Z,97.30
2023-01-20T01:08:53.327Z,96.34
2023-01-20T01:11:21.882Z,95.87
2023-01-20T01:13:50.287Z,95.43
2023-01-20T01:16:18.980Z,96.47
2023-01-20T01:18:47.476Z,97.43
2023-01-20T01:21:17.533Z,97.51
2023-01-20T01:23:46.129Z,97.21
2023-01-20T01:26:15.208Z,95.87
2023-01-20T01:28:43.808Z,95.35
2023-01-20T01:31:12.384Z,95.00
2023-01-20T01:33:41.030Z,92.38
2023-01-20T01:36:14.057Z,91.33
2023-01-20T01:38:43.588Z,89.14
2023-01-20T01:41:14.252Z,87.22
2023-01-20T01:44:10.568Z,86.84
2023-01-20T01:46:40.671Z,86.86
2023-01-20T01:49:24.954Z,86.26
2023-01-20T01:52:03.542Z,85.65
2023-01-20T01:54:37.428Z,85.24
2023-01-20T01:57:08.228Z,84.40
2023-01-20T01:59:38.497Z,83.57
2023-01-20T02:02:07.046Z,82.84
2023-01-20T02:04:35.633Z,83.18
2023-01-20T02:07:10.598Z,83.76
2023-01-20T02:09:39.497Z,83.29
2023-01-20T02:12:17.862Z,83.03
2023-01-20T02:14:51.276Z,82.90
2023-01-20T02:17:56.144Z,83.37
2023-01-20T02:20:53.481Z,83.46
2023-01-20T02:23:59.869Z,83.62
2023-01-20T02:26:46.572Z,85.62
2023-01-20T02:29:47.060Z,85.70
2023-01-20T02:32:30.674Z,83.88
2023-01-20T02:35:15.210Z,84.59
2023-01-20T02:38:02.317Z,85.07
2023-01-20T02:40:41.637Z,83.20
2023-01-20T02:43:38.970Z,82.53
2023-01-20T02:46:33.385Z,82.49
2023-01-20T02:49:15.193Z,83.49
2023-01-20T02:52:02.596Z,83.83
2023-01-20T02:54:34.133Z,83.59
2023-01-20T02:57:07.262Z,83.18
2023-01-20T02:59:41.789Z,82.84
2023-01-20T03:02:15.951Z,83.65
2023-01-20T03:05:04.113Z,83.50
2023-01-20T03:07:36.368Z,82.91
2023-01-20T03:10:10.188Z,83.15
2023-01-20T03:13:03.329Z,83.47
2023-01-20T03:15:59.576Z,83.74
2023-01-20T03:18:34.846Z,84.37
2023-01-20T03:21:05.685Z,84.36
2023-01-20T03:23:38.279Z,85.35
2023-01-20T03:26:10.315Z,87.22
2023-01-20T03:28:39.306Z,88.18
2023-01-20T03:31:18.122Z,88.81
2023-01-20T03:33:48.732Z,86.81
2023-01-20T03:36:20.979Z,85.88
2023-01-20T03:38:49.920Z,84.95
2023-01-20T03:41:46.034Z,84.59
2023-01-20T03:44:22.481Z,84.19
2023-01-20T03:46:54.029Z,84.94
2023-01-20T03:50:04.026Z,84.80
2023-01-20T03:52:47.191Z,84.61
2023-01-20T03:55:24.898Z,83.84
2023-01-20T03:58:06.706Z,83.65
2023-01-20T04:00:38.723Z,82.61
2023-01-20T04:03:12.712Z,83.65
2023-01-20T04:05:43.550Z,84.14
2023-01-20T04:08:14.954Z,85.25
2023-01-20T04:10:47.389Z,85.78
2023-01-20T04:13:16.571Z,84.97
2023-01-20T04:15:46.566Z,85.96
2023-01-20T04:18:22.828Z,85.35
2023-01-20T04:20:58.285Z,86.83
2023-01-20T04:23:33.130Z,86.33
2023-01-20T04:26:01.800Z,87.42
2023-01-20T04:28:30.435Z,86.62
2023-01-20T04:30:59.092Z,85.79
2023-01-20T04:33:27.780Z,84.57
2023-01-20T04:35:56.239Z,83.88
2023-01-20T04:38:24.777Z,84.51
2023-01-20T04:40:53.406Z,85.46
2023-01-20T04:43:21.906Z,85.26
2023-01-20T04:45:50.463Z,84.62
2023-01-20T04:48:18.932Z,83.63
2023-01-20T04:50:47.512Z,83.77
2023-01-20T04:53:19.483Z,83.32
2023-01-20T04:55:48.130Z,83.22
2023-01-20T04:58:16.571Z,82.64
2023-01-20T05:00:45.223Z,82.65
2023-01-20T05:03:13.879Z,82.79
2023-01-20T05:05:42.535Z,84.64
2023-01-20T05:08:11.019Z,86.43
2023-01-20T05:10:39.482Z,87.42
2023-01-20T05:13:07.927Z,88.42
2023-01-20T05:15:36.443Z,88.42
2023-01-20T05:18:04.951Z,87.49
2023-01-20T05:20:33.407Z,86.44
2023-01-20T05:23:02.327Z,85.93
2023-01-20T05:25:30.776Z,85.67
2023-01-20T05:28:00.888Z,85.01
2023-01-20T05:30:29.385Z,83.85
2023-01-20T05:32:57.919Z,84.14
2023-01-20T05:35:26.487Z,84.65
2023-01-20T05:37:56.040Z,84.39
2023-01-20T05:40:24.610Z,84.04
2023-01-20T05:42:53.045Z,84.29
2023-01-20T05:45:21.568Z,84.39
2023-01-20T05:47:55.509Z,83.82
2023-01-20T05:50:25.901Z,85.51
2023-01-20T05:52:54.493Z,85.72
2023-01-20T05:55:23.098Z,85.77
2023-01-20T05:57:51.588Z,86.64
2023-01-20T06:00:20.541Z,87.31
2023-01-20T06:02:48.941Z,91.01
2023-01-20T06:05:18.084Z,93.41
2023-01-20T06:07:46.963Z,93.94
2023-01-20T06:10:16.994Z,94.57
2023-01-20T06:12:53.325Z,94.34
2023-01-20T06:15:24.177Z,94.43
2023-01-20T06:17:55.228Z,93.92
2023-01-20T06:20:23.878Z,94.26
2023-01-20T06:22:56.237Z,93.51
2023-01-20T06:25:24.725Z,94.10
2023-01-20T06:27:53.148Z,93.87
2023-01-20T06:30:21.791Z,94.68
2023-01-20T06:32:50.242Z,96.00
2023-01-20T06:35:18.767Z,97.23
2023-01-20T06:37:47.491Z,97.02
2023-01-20T06:40:17.285Z,95.91
2023-01-20T06:42:45.681Z,94.49
2023-01-20T06:45:14.412Z,93.61
2023-01-20T06:47:43.034Z,93.85
2023-01-20T06:50:11.657Z,93.61
2023-01-20T06:52:40.042Z,94.13
2023-01-20T06:55:08.777Z,94.58
2023-01-20T06:57:37.216Z,94.85
2023-01-20T07:00:06.858Z,95.94
2023-01-20T07:02:35.521Z,96.72
2023-01-20T07:05:08.328Z,96.56
2023-01-20T07:07:36.932Z,96.39
2023-01-20T07:10:06.656Z,96.32
2023-01-20T07:12:35.108Z,95.90
2023-01-20T07:15:03.975Z,96.00
2023-01-20T07:17:32.507Z,95.32
2023-01-20T07:20:01.191Z,96.75
2023-01-20T07:22:29.692Z,99.30
2023-01-20T07:24:58.159Z,98.54
2023-01-20T07:27:26.712Z,99.77
2023-01-20T07:29:55.199Z,100.00
2023-01-20T07:32:23.870Z,100.00
2023-01-20T07:34:52.303Z,99.95
2023-01-20T07:37:20.749Z,99.89
2023-01-20T07:39:49.220Z,99.59
2023-01-20T07:42:17.644Z,99.73
2023-01-20T07:44:46.182Z,99.86
2023-01-20T07:47:14.592Z,99.93
2023-01-20T07:49:43.031Z,99.15
2023-01-20T07:52:11.682Z,99.28
2023-01-20T07:54:40.145Z,100.00
2023-01-20T07:57:09.556Z,99.54
2023-01-20T07:59:38.222Z,99.76
2023-01-20T08:02:06.710Z,99.40
2023-01-20T08:04:35.279Z,99.43
2023-01-20T08:07:03.966Z,97.97
2023-01-20T08:09:32.438Z,97.33
2023-01-20T08:12:02.497Z,99.04
2023-01-20T08:14:31.015Z,99.68
2023-01-20T08:17:00.579Z,98.37
2023-01-20T08:19:30.230Z,99.67
2023-01-20T08:21:58.796Z,98.16
2023-01-20T08:24:27.405Z,99.83
2023-01-20T08:26:55.921Z,100.00
2023-01-20T08:29:24.471Z,99.57
2023-01-20T08:31:53.145Z,99.66
2023-01-20T08:34:23.536Z,100.00
2023-01-20T08:36:54.395Z,100.00
2023-01-20T08:39:23.537Z,100.00
2023-01-20T08:41:52.343Z,100.00
2023-01-20T08:44:21.576Z,98.62
2023-01-20T08:46:52.885Z,97.60
2023-01-20T08:49:23.683Z,96.81
2023-01-20T08:51:52.420Z,96.05
2023-01-20T08:54:22.334Z,94.51
2023-01-20T08:56:52.723Z,93.59
2023-01-20T08:59:22.886Z,92.75
2023-01-20T09:01:51.436Z,92.88
2023-01-20T09:04:20.036Z,95.11
2023-01-20T09:06:50.588Z,96.15
2023-01-20T09:09:21.619Z,96.17
2023-01-20T09:11:53.137Z,93.75
2023-01-20T09:14:24.821Z,91.88
2023-01-20T09:16:53.534Z,90.51
2023-01-20T09:19:22.327Z,88.59
2023-01-20T09:21:50.793Z,89.84
2023-01-20T09:24:19.204Z,91.13
2023-01-20T09:26:49.432Z,91.52
2023-01-20T09:29:20.999Z,90.40
2023-01-20T09:31:58.582Z,90.13
2023-01-20T09:34:29.769Z,90.97
2023-01-20T09:37:19.977Z,91.39
2023-01-20T09:40:07.552Z,88.58
2023-01-20T09:42:54.687Z,90.06
2023-01-20T09:45:35.759Z,90.12
2023-01-20T09:48:51.642Z,91.81
2023-01-20T09:51:51.591Z,92.29
2023-01-20T09:54:29.361Z,93.01
2023-01-20T09:57:01.115Z,97.11
2023-01-20T09:59:55.830Z,96.96
2023-01-20T10:02:30.005Z,95.70
2023-01-20T10:05:08.113Z,96.18
2023-01-20T10:07:55.782Z,95.70
2023-01-20T10:11:09.254Z,97.56
2023-01-20T10:13:51.925Z,98.12
2023-01-20T10:16:49.010Z,96.56
2023-01-20T10:19:22.224Z,97.93
2023-01-20T10:22:02.767Z,97.11
2023-01-20T10:24:47.704Z,95.78
2023-01-20T10:27:16.284Z,96.29
2023-01-20T10:29:56.171Z,94.59
2023-01-20T10:32:42.435Z,92.68
2023-01-20T10:35:19.112Z,93.71
2023-01-20T10:37:48.095Z,93.10
2023-01-20T10:40:35.384Z,94.83
2023-01-20T10:43:13.191Z,94.72
2023-01-20T10:46:12.317Z,94.25
2023-01-20T10:49:18.400Z,94.26
2023-01-20T10:52:12.558Z,93.88
2023-01-20T10:55:01.002Z,93.98
2023-01-20T10:57:29.564Z,96.22
2023-01-20T11:00:03.390Z,95.60
2023-01-20T11:02:35.287Z,95.06
2023-01-20T11:05:22.976Z,94.49
2023-01-20T11:07:54.397Z,93.00
2023-01-20T11:10:29.921Z,92.14
2023-01-20T11:13:01.180Z,95.31
2023-01-20T11:15:32.768Z,94.31
2023-01-20T11:18:16.859Z,94.64
2023-01-20T11:20:53.024Z,93.81
2023-01-20T11:23:41.162Z,93.82
2023-01-20T11:26:19.651Z,94.50
2023-01-20T11:28:55.761Z,96.85
2023-01-20T11:31:40.623Z,97.44
2023-01-20T11:34:26.706Z,97.55
2023-01-20T11:37:07.818Z,97.65
2023-01-20T11:40:00.528Z,98.83
2023-01-20T11:42:41.536Z,97.37
2023-01-20T11:45:23.515Z,96.79
2023-01-20T11:48:01.506Z,97.48
2023-01-20T11:50:37.008Z,97.39
2023-01-20T11:53:29.254Z,97.25
2023-01-20T11:56:15.208Z,97.32
2023-01-20T11:58:51.760Z,96.90
2023-01-20T12:01:29.378Z,96.80
2023-01-20T12:04:04.319Z,97.25
2023-01-20T12:06:43.467Z,97.69
2023-01-20T12:09:20.299Z,96.21
2023-01-20T12:12:06.915Z,94.75
2023-01-20T12:14:49.426Z,93.23
2023-01-20T12:17:39.528Z,94.62
2023-01-20T12:20:25.145Z,94.59
2023-01-20T12:23:06.205Z,92.80
2023-01-20T12:25:46.536Z,94.83
2023-01-20T12:28:41.037Z,94.18
2023-01-20T12:31:13.999Z,92.88
2023-01-20T12:33:48.680Z,93.82
2023-01-20T12:36:33.431Z,94.53
2023-01-20T12:39:29.535Z,94.98
2023-01-20T12:42:10.086Z,97.27
2023-01-20T12:44:59.124Z,97.24
2023-01-20T12:47:46.660Z,96.75
2023-01-20T12:50:43.507Z,98.14
2023-01-20T12:53:39.218Z,98.81
2023-01-20T12:56:48.922Z,98.72
2023-01-20T12:59:38.472Z,98.37
2023-01-20T13:02:28.472Z,96.48
2023-01-20T13:05:10.688Z,95.21
2023-01-20T13:08:17.572Z,94.78
2023-01-20T13:11:01.332Z,94.18
2023-01-20T13:14:00.853Z,93.30
2023-01-20T13:16:42.709Z,93.52
2023-01-20T13:19:19.955Z,94.93
2023-01-20T13:22:06.605Z,95.82
2023-01-20T13:24:37.080Z,93.31
2023-01-20T13:27:06.213Z,91.60
2023-01-20T13:29:37.536Z,91.89
2023-01-20T13:32:33.547Z,91.87
2023-01-20T13:35:24.283Z,91.99
2023-01-20T13:37:55.731Z,93.17
2023-01-20T13:40:36.128Z,95.25
2023-01-20T13:43:26.609Z,94.24
2023-01-20T13:46:04.154Z,94.75
2023-01-20T13:48:34.331Z,93.74
2023-01-20T13:51:29.957Z,92.25
2023-01-20T13:54:23.059Z,92.37
2023-01-20T13:56:52.717Z,91.34
2023-01-20T13:59:21.202Z,91.27
2023-01-20T14:01:49.667Z,92.38
2023-01-20T14:04:20.649Z,91.96
2023-01-20T14:06:52.575Z,91.60
2023-01-20T14:09:26.446Z,91.04
2023-01-20T14:11:57.451Z,91.67
2023-01-20T14:14:27.305Z,91.91
2023-01-20T14:16:57.038Z,91.18
2023-01-20T14:19:32.973Z,90.20
2023-01-20T14:22:18.117Z,90.81
2023-01-20T14:24:53.185Z,90.19
2023-01-20T14:27:24.168Z,91.63
2023-01-20T14:29:55.315Z,92.37
2023-01-20T14:32:30.346Z,94.11
2023-01-20T14:34:59.864Z,91.67
2023-01-20T14:37:35.155Z,90.54
2023-01-20T14:40:26.798Z,90.28
2023-01-20T14:43:16.958Z,90.17
2023-01-20T14:45:51.900Z,91.26
2023-01-20T14:48:33.730Z,93.30
2023-01-20T14:51:04.550Z,93.37
2023-01-20T14:53:33.477Z,93.85
2023-01-20T14:56:08.417Z,94.72
2023-01-20T14:58:45.649Z,94.16
2023-01-20T15:01:26.063Z,94.37
2023-01-20T15:04:00.289Z,96.19
2023-01-20T15:06:29.216Z,97.39
2023-01-20T15:09:06.449Z,96.85
2023-01-20T15:11:36.717Z,97.25
2023-01-20T15:14:11.219Z,98.34
2023-01-20T15:16:47.805Z,98.69
2023-01-20T15:19:20.274Z,100.00
2023-01-20T15:21:56.609Z,100.00
2023-01-20T15:24:34.899Z,100.00
2023-01-20T15:27:19.703Z,100.00
2023-01-20T15:30:13.717Z,100.00
2023-01-20T15:32:42.528Z,100.00
2023-01-20T15:35:15.991Z,100.00
2023-01-20T15:37:44.813Z,99.69
2023-01-20T15:40:15.642Z,98.23
2023-01-20T15:42:45.228Z,97.31
2023-01-20T15:45:15.339Z,95.92
2023-01-20T15:47:45.584Z,96.26
2023-01-20T15:50:22.562Z,96.25
2023-01-20T15:52:51.360Z,96.86
2023-01-20T15:55:20.285Z,96.97
2023-01-20T15:57:52.179Z,97.68
2023-01-20T16:00:23.085Z,97.75
2023-01-20T16:02:52.323Z,98.09
2023-01-20T16:05:21.320Z,98.65
2023-01-20T16:07:50.555Z,99.00
2023-01-20T16:10:20.304Z,100.00
2023-01-20T16:12:48.875Z,100.00
2023-01-20T16:15:18.383Z,100.00
2023-01-20T16:17:46.890Z,100.00
2023-01-20T16:20:22.957Z,100.00
2023-01-20T16:22:52.069Z,100.00
2023-01-20T16:25:21.768Z,99.99
2023-01-20T16:27:51.142Z,99.43
2023-01-20T16:30:21.761Z,99.23
2023-01-20T16:32:50.936Z,99.80
2023-01-20T16:35:23.791Z,99.91
2023-01-20T16:37:53.066Z,100.00
2023-01-20T16:40:22.699Z,99.98
2023-01-20T16:42:55.150Z,99.87
2023-01-20T16:45:27.401Z,99.23
2023-01-20T16:47:57.233Z,99.33
2023-01-20T16:50:28.644Z,100.00
2023-01-20T16:52:57.381Z,100.00
2023-01-20T16:55:25.906Z,99.77
2023-01-20T16:57:54.499Z,99.03
2023-01-20T17:00:23.671Z,99.12
2023-01-20T17:02:53.617Z,99.94
2023-01-20T17:05:25.709Z,100.00
2023-01-20T17:07:59.310Z,99.49
2023-01-20T17:10:30.338Z,97.57
2023-01-20T17:12:59.395Z,97.22
2023-01-20T17:15:28.341Z,98.86
2023-01-20T17:17:58.585Z,99.51
2023-01-20T17:20:28.576Z,99.91
2023-01-20T17:22:57.186Z,100.00
2023-01-20T17:25:26.099Z,100.00
2023-01-20T17:27:54.802Z,100.00
2023-01-20T17:30:26.124Z,100.00
2023-01-20T17:32:55.054Z,100.00
2023-01-20T17:35:23.557Z,100.00
2023-01-20T17:37:52.054Z,100.00
2023-01-20T17:40:21.217Z,100.00
2023-01-20T17:42:53.407Z,100.00
2023-01-20T17:45:21.952Z,100.00
2023-01-20T17:47:52.490Z,100.00
2023-01-20T17:50:21.045Z,100.00
2023-01-20T17:52:50.981Z,100.00
2023-01-20T17:55:19.462Z,100.00
2023-01-20T17:57:50.889Z,100.00
2023-01-20T18:00:19.670Z,100.00
2023-01-20T18:02:48.229Z,100.00
2023-01-20T18:05:17.450Z,100.00
2023-01-20T18:07:46.090Z,100.00
2023-01-20T18:10:14.852Z,100.00
2023-01-20T18:12:43.809Z,100.00
2023-01-20T18:15:12.293Z,100.00
2023-01-20T18:17:43.606Z,100.00
2023-01-20T18:20:13.001Z,100.00
2023-01-20T18:22:48.413Z,100.00
2023-01-20T18:25:18.579Z,100.00
2023-01-20T18:27:47.144Z,100.00
2023-01-20T18:30:16.205Z,100.00
2023-01-20T18:32:44.856Z,100.00
2023-01-20T18:35:13.355Z,100.00
2023-01-20T18:37:42.116Z,100.00
2023-01-20T18:40:11.741Z,100.00
2023-01-20T18:42:40.860Z,100.00
2023-01-20T18:45:09.856Z,100.00
2023-01-20T18:47:38.509Z,100.00
2023-01-20T18:50:07.314Z,100.00
2023-01-20T18:52:35.815Z,100.00
2023-01-20T18:55:04.495Z,100.00
2023-01-20T18:57:33.136Z,100.00
2023-01-20T19:00:01.585Z,100.00
2023-01-20T19:02:30.437Z,100.00
2023-01-20T19:04:59.109Z,100.00
2023-01-20T19:07:27.643Z,100.00
2023-01-20T19:09:56.108Z,100.00
2023-01-20T19:12:24.570Z,100.00
2023-01-20T19:14:55.085Z,100.00
2023-01-20T19:17:24.053Z,100.00
2023-01-20T19:19:52.614Z,100.00
2023-01-20T19:22:21.059Z,100.00
2023-01-20T19:24:49.595Z,100.00
2023-01-20T19:27:18.224Z,100.00
2023-01-20T19:29:48.404Z,100.00
2023-01-20T19:32:16.904Z,100.00
2023-01-20T19:34:45.969Z,100.00
2023-01-20T19:37:14.502Z,100.00
2023-01-20T19:39:42.946Z,100.00
2023-01-20T19:42:11.369Z,100.00
2023-01-20T19:44:39.933Z,100.00
2023-01-20T19:47:08.419Z,100.00
2023-01-20T19:49:37.034Z,100.00
2023-01-20T19:52:05.973Z,100.00
2023-01-20T19:54:34.735Z,100.00
2023-01-20T19:57:03.487Z,100.00
2023-01-20T19:59:32.090Z,100.00
2023-01-20T20:02:00.685Z,100.00
2023-01-20T20:04:29.233Z,100.00
2023-01-20T20:06:57.755Z,100.00
2023-01-20T20:09:26.364Z,100.00
2023-01-20T20:11:56.339Z,100.00
2023-01-20T20:14:27.455Z,100.00
2023-01-20T20:16:55.954Z,100.00
2023-01-20T20:19:25.243Z,100.00
2023-01-20T20:21:58.824Z,100.00
2023-01-20T20:24:27.270Z,100.00
2023-01-20T20:26:55.794Z,100.00
2023-01-20T20:29:24.458Z,100.00
2023-01-20T20:31:52.896Z,100.00
2023-01-20T20:34:21.614Z,100.00
2023-01-20T20:36:50.021Z,100.00
2023-01-20T20:39:19.913Z,100.00
2023-01-20T20:41:48.559Z,100.00
2023-01-20T20:44:17.100Z,100.00
2023-01-20T20:46:45.866Z,100.00
2023-01-20T20:49:16.070Z,100.00
2023-01-20T20:51:44.979Z,100.00
2023-01-20T20:54:15.542Z,100.00
2023-01-20T20:56:45.280Z,100.00
2023-01-20T20:59:14.009Z,100.00
2023-01-20T21:01:42.717Z,100.00
2023-01-20T21:04:11.919Z,100.00
2023-01-20T21:06:40.524Z,100.00
2023-01-20T21:09:09.781Z,100.00
2023-01-20T21:11:38.685Z,100.00
2023-01-20T21:14:07.787Z,100.00
2023-01-20T21:16:36.521Z,100.00
2023-01-20T21:19:05.519Z,100.00
2023-01-20T21:21:34.222Z,99.99
2023-01-20T21:24:02.938Z,100.00
2023-01-20T21:26:31.462Z,100.00
2023-01-20T21:29:04.070Z,100.00
2023-01-20T21:31:34.840Z,100.00
2023-01-20T21:34:04.034Z,99.91
2023-01-20T21:36:34.248Z,100.00
2023-01-20T21:39:02.949Z,99.47
2023-01-20T21:41:32.121Z,99.39
2023-01-20T21:44:19.209Z,99.94
2023-01-20T21:46:47.720Z,99.35
2023-01-20T21:49:34.856Z,98.48
2023-01-20T21:52:22.167Z,96.02
2023-01-20T21:54:50.846Z,96.97
2023-01-20T21:57:21.348Z,97.25
2023-01-20T21:59:49.807Z,96.45
2023-01-20T22:02:18.637Z,98.49
2023-01-20T22:04:47.983Z,100.00
2023-01-20T22:07:18.091Z,100.00
2023-01-20T22:09:46.854Z,99.73
2023-01-20T22:12:15.412Z,99.91
2023-01-20T22:14:44.070Z,99.97
2023-01-20T22:17:13.429Z,99.10
2023-01-20T22:19:41.952Z,100.00
2023-01-20T22:22:10.769Z,99.99
2023-01-20T22:24:39.237Z,99.84
2023-01-20T22:27:07.778Z,99.62
2023-01-20T22:29:36.335Z,100.00
2023-01-20T22:32:05.152Z,100.00
2023-01-20T22:34:33.628Z,99.88
2023-01-20T22:37:02.678Z,99.55
2023-01-20T22:39:31.127Z,99.77
2023-01-20T22:41:59.660Z,98.59
2023-01-20T22:44:28.104Z,96.09
2023-01-20T22:46:56.560Z,96.91
2023-01-20T22:49:25.159Z,97.09
2023-01-20T22:51:55.436Z,98.33
2023-01-20T22:54:23.883Z,98.07
2023-01-20T22:56:52.440Z,98.31
2023-01-20T22:59:20.871Z,99.00
2023-01-20T23:01:49.387Z,97.98
2023-01-20T23:04:17.921Z,98.67
2023-01-20T23:06:46.439Z,98.98
2023-01-20T23:09:15.714Z,99.42
2023-01-20T23:11:44.345Z,98.58
2023-01-20T23:14:13.085Z,99.36
2023-01-20T23:16:42.852Z,100.00
2023-01-20T23:19:11.851Z,100.00
2023-01-20T23:21:40.712Z,100.00
2023-01-20T23:24:09.872Z,100.00
2023-01-20T23:26:38.393Z,99.96
2023-01-20T23:29:06.894Z,99.86
2023-01-20T23:31:35.666Z,100.00
2023-01-20T23:34:04.453Z,100.00
2023-01-20T23:36:33.427Z,100.00
2023-01-20T23:39:01.897Z,99.85
2023-01-20T23:41:30.415Z,99.73
2023-01-20T23:43:58.931Z,99.90
2023-01-20T23:46:27.551Z,100.00
2023-01-20T23:48:56.036Z,99.48
2023-01-20T23:51:24.531Z,99.95
2023-01-20T23:53:52.997Z,100.00
2023-01-20T23:56:24.042Z,100.00
2023-01-20T23:58:52.827Z,100.00
